Aérodrome :







RETROUVEZ-NOUS SUR...

 
LOGIN :

S'inscrire | Disclaimer

   EN    FR    IT 

 









Légende :    VFR   VFR Marginal   IFR   IFR Intensif   IFR Très Intensif
Visi : 
Plafond : 
>= 8 km
>= 3000ft
5 à 8 km
1000 à 3000 ft
1500m à 5 km
500 à 1000 ft
800 à 1500m
200 à 500 ft
< 800m
< 200 ft
Symboles :   Orages  Brouillard  Fortes neiges  Fortes précipitations  Vent > 20 kt






- Altitude de l'aérodrome : 474 ft


KPTD - Potsdam Municipal-Damon field

DERNIER METAR :
  • 150935Z AUTO 24018G28KT 10SM BKN014 OVC018 01/M00 A2933 RMK AO2

METARs EXPIRÉS :
  • 150915Z AUTO 24018G26KT 10SM BKN012 OVC016 01/M00 A2931 RMK AO2
  • 150855Z AUTO 24020G31KT 4SM -SN BKN008 OVC011 01/M00 A2930 RMK AO2
  • 150835Z AUTO 24021G27KT 1 3/4SM -SN OVC007 01/M00 A2928 RMK AO2
  • 150815Z AUTO 24020G27KT 2SM -SN OVC007 01/00 A2927 RMK AO2
  • 150755Z AUTO 24021G26KT 2 1/2SM -SN OVC007 01/00 A2926 RMK AO2 P0001
  • 150735Z AUTO 24019G27KT 2 1/2SM -SN OVC006 01/00 A2924 RMK AO2
  • 150715Z AUTO 24020G26KT 2 1/2SM -SN BKN006 OVC009 01/00 A2921 RMK AO2
  • 150655Z AUTO 25018G26KT 2SM -SN BKN007 OVC011 01/00 A2920 RMK AO2

TAF N/A



MET'MAP, la Météo Aéronautique d'un coup d'oeil ! - Copyright ORBIFLY Décembre 2007 - Disclaimer

ORBIFLY MET'MAP TEAM :

Programmation & Développement : Alexandra Zaïnal
Sur une idée originale de : Baudouin d'Aumeries
Assistance à la programmation : Marc-Olivier Méhu
Soutien technique & logistique : Manuel Goepfert

Contact : metmap@orbifly.com




SOURCES & CREDITS :

   NOAA